EDLI 052350Z 09003KT 9999 14/13 Q1005

Wind aktuell: 090° mit 3 kt

Wind 10 Minuten extrem:

070° bis 100° mit 2 kt bis 4 kt

Seitenwindkomponente: -1.2 kt

Wolkengrenze 1: keine

Wolkengrenze 2: keine

Wolkengrenze 3: keine

Sichtweite: 20.000 Meter

Vorheriges Wetter:

Aktuelles Wetter:

Temperatur: 14.4 °C

Taupunkt: 13.8 °C

Luftfeuchtigkeit: 96%

QNH: 1005 hPa 

QFE: 989 hPa

Diese Daten werden automatisch ermittelt bzw. übertragen und sind nicht geprüft. Für die Richtigkeit wird daher keine Gewähr übernommen. Sie ersetzen im übrigen nicht die Flugwetterberatung. Alle Zeitangaben beziehen sich auf UTC. Die Seite wird einmal die Minute aktualisiert! Sollten Sie ein ältere Seite haben, so drücken Sie bitte auf den Reload Button Ihres Browsers!